Watertown, SD

10:26 PM CDT on July 29, 2014 (GMT -0500)
East side of Watertown, SD (KSDWATER8) Elev 1732 ft | 44.89 °N, 97.09 °W | Change Station

Current weather conditions updated 4 minutes ago

Clear
Clear
58.6 °F
Feels Like 58.6 °F
N
0.0
Wind Variable Wind from ESE

Tomorrow is forecast to be nearly the same temperature as today.

Today
High -- | Low -- °F
--% Chance of Precip.
Yesterday
High -- | Low -- °F
Precip. -- in
6:10 AM 8:58 PM
Waxing Crescent, 9% visible
Pressure 30.12 in
Visibility 10.0 miles
Clouds Clear
Dew Point 54 °F
Humidity 84%
Rainfall 0.00 in
Snow Depth Not available.
UV 0 out of 12
Pollen 6.20 out of 12
Air Quality Not available.
Flu Activity Not available.
METAR KATY 300253Z AUTO 00000KT 10SM CLR 18/12 A3013 RMK AO2 SLP200 T01780117 53000

More Conditions Fewer Conditions

Pressure 30.12 in
Visibility 10.0 miles
Clouds Clear
Dew Point 54 °F
Humidity 84%
Rainfall 0.00 in
Snow Depth Not available.
UV 0 out of 12
Pollen 6.20 out of 12
Air Quality Not available.
Flu Activity Not available.
METAR KATY 300253Z AUTO 00000KT 10SM CLR 18/12 A3013 RMK AO2 SLP200 T01780117 53000

More Conditions Fewer Conditions

10-Day Weather Forecast

Almanac

Astronomy

Jul. 29, 2014 Rise Set
Actual Time 6:10 AM CDT 8:58 PM CDT
Civil Twilight 5:36 AM CDT 9:32 PM CDT
Nautical Twilight 4:53 AM CDT 10:15 PM CDT
Astronomical Twilight 4:03 AM CDT 11:05 PM CDT
Moon 8:57 AM CDT (7/29) 10:00 PM CDT (7/29)
Length of Visible Light 15h 55m
Length of Day
14h 47m
Tomorrow will be 2m 18s shorter.
Waxing Crescent, 9% of the Moon is Illuminated
Today
Waxing Crescent
Aug 3
First Quarter
Aug 10
Full
Aug 17
Last Quarter
Aug 25
New

Today's Extremes

State Highs State Lows

Community

WunderPhotos

Upload Photos

1,738,989 photos uploaded!

Nearby

Snow Depth

Station Depth Elevation
Blind Park 0 in 6890 ft

Earthquake Activity

City Distance Mag. Time & Date
No recent earthquake activity has been reported nearby.
Minimum magnitude displayed is 2.5.

Coastal Water Temperatures

Place Temperature
No Stations Reporting

Nearby Weather Stations

Station Location Temp. Dew Point Humidity Wind Precip. Elev Updated Type
East side of Watertown, SD, Watertown, SD 58.6 °F 54 °F 84% ESE  at  0.0 mph - / hr 1732 ft 10:22 PM CDT Normal
Turkey Ridge, Watertown, SD 62.9 °F 53 °F 70% ENE  at  0.0 mph 0.00 in / hr 1795 ft 10:19 PM CDT Normal
derby downs, Watertown, SD 64.7 °F 55 °F 71% North  at  0.0 mph - / hr 1810 ft 10:24 PM CDT Normal
South Lake Pelican, Watertown, SD 59.0 °F 54 °F 82% ENE  at  0.0 mph 0.00 in / hr 1726 ft 10:26 PM CDT Rapid Fire
Kent, Florence, SD 62.2 °F 55 °F 78% NNE  at  0.0 mph 0.00 in / hr 1801 ft 10:20 PM CDT Normal
Rural Summit, Summit, SD 58.3 °F 54 °F 84% ENE  at  0.0 mph - / hr 1913 ft 10:17 PM CDT Normal
Bradley, SD 57.6 °F 52 °F 83% SW  at  1.6 mph 0.00 in / hr 1827 ft 12:15 AM UYT Normal

Show More Stations Show Fewer Stations